sensor_id;sensor_type;location;lat;lon;timestamp;P1;durP1;ratioP1;P2;durP2;ratioP2
53261;SDS011;39658;51.090;-1.786;2023-06-22T00:00:11;12.30;;;4.65;;
53261;SDS011;39658;51.090;-1.786;2023-06-22T00:02:38;13.20;;;5.90;;
53261;SDS011;39658;51.090;-1.786;2023-06-22T00:05:05;14.02;;;5.78;;
53261;SDS011;39658;51.090;-1.786;2023-06-22T00:07:32;12.85;;;5.05;;
53261;SDS011;39658;51.090;-1.786;2023-06-22T00:09:59;14.45;;;6.20;;
53261;SDS011;39658;51.090;-1.786;2023-06-22T00:12:25;15.02;;;5.40;;
53261;SDS011;39658;51.090;-1.786;2023-06-22T00:14:52;11.15;;;4.78;;
53261;SDS011;39658;51.090;-1.786;2023-06-22T00:17:20;16.98;;;5.95;;
53261;SDS011;39658;51.090;-1.786;2023-06-22T00:19:47;13.90;;;6.03;;
53261;SDS011;39658;51.090;-1.786;2023-06-22T00:22:18;11.90;;;4.80;;
53261;SDS011;39658;51.090;-1.786;2023-06-22T00:24:46;15.93;;;6.05;;
53261;SDS011;39658;51.090;-1.786;2023-06-22T00:27:13;15.82;;;5.63;;
53261;SDS011;39658;51.090;-1.786;2023-06-22T00:29:40;12.50;;;5.22;;
53261;SDS011;39658;51.090;-1.786;2023-06-22T00:32:07;15.48;;;6.03;;
53261;SDS011;39658;51.090;-1.786;2023-06-22T00:34:35;12.95;;;4.50;;
53261;SDS011;39658;51.090;-1.786;2023-06-22T00:37:02;12.75;;;5.22;;
53261;SDS011;39658;51.090;-1.786;2023-06-22T00:39:29;17.63;;;5.78;;
53261;SDS011;39658;51.090;-1.786;2023-06-22T00:41:58;15.18;;;5.03;;
53261;SDS011;39658;51.090;-1.786;2023-06-22T00:44:25;15.80;;;5.63;;
53261;SDS011;39658;51.090;-1.786;2023-06-22T00:46:52;15.88;;;5.05;;
53261;SDS011;39658;51.090;-1.786;2023-06-22T00:49:20;13.77;;;4.15;;
53261;SDS011;39658;51.090;-1.786;2023-06-22T00:51:48;15.73;;;5.15;;
53261;SDS011;39658;51.090;-1.786;2023-06-22T00:54:15;12.75;;;5.65;;
53261;SDS011;39658;51.090;-1.786;2023-06-22T00:56:46;15.25;;;6.50;;
53261;SDS011;39658;51.090;-1.786;2023-06-22T00:59:13;15.93;;;5.65;;
53261;SDS011;39658;51.090;-1.786;2023-06-22T01:01:42;13.93;;;4.75;;
53261;SDS011;39658;51.090;-1.786;2023-06-22T01:04:09;16.70;;;6.72;;
53261;SDS011;39658;51.090;-1.786;2023-06-22T01:06:38;14.00;;;5.57;;
53261;SDS011;39658;51.090;-1.786;2023-06-22T01:09:14;14.50;;;5.00;;
53261;SDS011;39658;51.090;-1.786;2023-06-22T01:11:47;12.63;;;4.88;;
53261;SDS011;39658;51.090;-1.786;2023-06-22T01:14:20;12.90;;;5.15;;
53261;SDS011;39658;51.090;-1.786;2023-06-22T01:16:50;16.30;;;5.97;;
53261;SDS011;39658;51.090;-1.786;2023-06-22T01:19:29;16.40;;;6.38;;
53261;SDS011;39658;51.090;-1.786;2023-06-22T01:22:06;14.13;;;5.38;;
53261;SDS011;39658;51.090;-1.786;2023-06-22T01:24:45;14.30;;;4.78;;
53261;SDS011;39658;51.090;-1.786;2023-06-22T01:27:26;19.05;;;5.95;;
53261;SDS011;39658;51.090;-1.786;2023-06-22T01:30:03;14.45;;;4.65;;
53261;SDS011;39658;51.090;-1.786;2023-06-22T01:32:32;15.20;;;5.45;;
53261;SDS011;39658;51.090;-1.786;2023-06-22T01:35:03;13.00;;;5.93;;
53261;SDS011;39658;51.090;-1.786;2023-06-22T01:37:32;12.15;;;4.72;;
53261;SDS011;39658;51.090;-1.786;2023-06-22T01:40:01;15.35;;;5.57;;
53261;SDS011;39658;51.090;-1.786;2023-06-22T01:42:30;14.38;;;5.68;;
53261;SDS011;39658;51.090;-1.786;2023-06-22T01:44:58;13.40;;;5.95;;
53261;SDS011;39658;51.090;-1.786;2023-06-22T01:47:27;14.52;;;5.88;;
53261;SDS011;39658;51.090;-1.786;2023-06-22T01:49:54;15.43;;;5.07;;
53261;SDS011;39658;51.090;-1.786;2023-06-22T01:52:22;13.55;;;4.28;;
53261;SDS011;39658;51.090;-1.786;2023-06-22T01:54:48;15.35;;;5.03;;
53261;SDS011;39658;51.090;-1.786;2023-06-22T01:57:15;15.90;;;6.32;;
53261;SDS011;39658;51.090;-1.786;2023-06-22T01:59:44;11.30;;;5.10;;
53261;SDS011;39658;51.090;-1.786;2023-06-22T02:02:18;14.82;;;6.22;;
53261;SDS011;39658;51.090;-1.786;2023-06-22T02:04:54;14.43;;;6.03;;
53261;SDS011;39658;51.090;-1.786;2023-06-22T02:07:23;11.80;;;4.15;;
53261;SDS011;39658;51.090;-1.786;2023-06-22T02:09:57;12.43;;;4.65;;
53261;SDS011;39658;51.090;-1.786;2023-06-22T02:12:25;9.95;;;3.75;;
53261;SDS011;39658;51.090;-1.786;2023-06-22T02:14:54;10.50;;;3.25;;
53261;SDS011;39658;51.090;-1.786;2023-06-22T02:17:22;11.55;;;4.28;;
53261;SDS011;39658;51.090;-1.786;2023-06-22T02:22:20;16.50;;;5.03;;
53261;SDS011;39658;51.090;-1.786;2023-06-22T02:24:47;14.98;;;4.10;;
53261;SDS011;39658;51.090;-1.786;2023-06-22T02:27:13;12.68;;;4.55;;
53261;SDS011;39658;51.090;-1.786;2023-06-22T02:29:40;11.07;;;4.57;;
53261;SDS011;39658;51.090;-1.786;2023-06-22T02:32:07;10.13;;;3.97;;
53261;SDS011;39658;51.090;-1.786;2023-06-22T02:34:34;15.57;;;4.70;;
53261;SDS011;39658;51.090;-1.786;2023-06-22T02:37:03;18.60;;;6.00;;
53261;SDS011;39658;51.090;-1.786;2023-06-22T02:39:30;15.70;;;5.82;;
53261;SDS011;39658;51.090;-1.786;2023-06-22T02:41:57;18.50;;;5.95;;
53261;SDS011;39658;51.090;-1.786;2023-06-22T02:44:24;17.50;;;5.57;;
53261;SDS011;39658;51.090;-1.786;2023-06-22T02:46:50;15.90;;;6.45;;
53261;SDS011;39658;51.090;-1.786;2023-06-22T02:49:19;15.68;;;6.22;;
53261;SDS011;39658;51.090;-1.786;2023-06-22T02:51:46;22.42;;;5.63;;
53261;SDS011;39658;51.090;-1.786;2023-06-22T02:54:15;18.23;;;6.82;;
53261;SDS011;39658;51.090;-1.786;2023-06-22T02:56:42;21.95;;;6.25;;
53261;SDS011;39658;51.090;-1.786;2023-06-22T02:59:10;19.83;;;5.65;;
53261;SDS011;39658;51.090;-1.786;2023-06-22T03:01:36;12.85;;;5.25;;
53261;SDS011;39658;51.090;-1.786;2023-06-22T03:04:05;17.98;;;5.55;;
53261;SDS011;39658;51.090;-1.786;2023-06-22T03:06:32;16.88;;;6.13;;
53261;SDS011;39658;51.090;-1.786;2023-06-22T03:08:59;13.85;;;5.50;;
53261;SDS011;39658;51.090;-1.786;2023-06-22T03:11:30;14.07;;;5.30;;
53261;SDS011;39658;51.090;-1.786;2023-06-22T03:13:57;15.27;;;6.22;;
53261;SDS011;39658;51.090;-1.786;2023-06-22T03:16:24;16.20;;;4.60;;
53261;SDS011;39658;51.090;-1.786;2023-06-22T03:18:51;16.02;;;5.22;;
53261;SDS011;39658;51.090;-1.786;2023-06-22T03:21:18;15.35;;;4.93;;
53261;SDS011;39658;51.090;-1.786;2023-06-22T03:23:45;11.07;;;4.38;;
53261;SDS011;39658;51.090;-1.786;2023-06-22T03:26:12;13.35;;;4.55;;
53261;SDS011;39658;51.090;-1.786;2023-06-22T03:28:40;13.60;;;5.68;;
53261;SDS011;39658;51.090;-1.786;2023-06-22T03:31:07;9.07;;;3.78;;
53261;SDS011;39658;51.090;-1.786;2023-06-22T03:33:34;11.95;;;4.20;;
53261;SDS011;39658;51.090;-1.786;2023-06-22T03:36:01;14.07;;;5.22;;
53261;SDS011;39658;51.090;-1.786;2023-06-22T03:38:28;14.80;;;5.22;;
53261;SDS011;39658;51.090;-1.786;2023-06-22T03:40:55;13.70;;;4.13;;
53261;SDS011;39658;51.090;-1.786;2023-06-22T03:43:22;9.98;;;3.70;;
53261;SDS011;39658;51.090;-1.786;2023-06-22T03:45:51;8.60;;;3.30;;
53261;SDS011;39658;51.090;-1.786;2023-06-22T03:48:17;15.63;;;4.03;;
53261;SDS011;39658;51.090;-1.786;2023-06-22T03:50:44;12.13;;;5.00;;
53261;SDS011;39658;51.090;-1.786;2023-06-22T03:53:11;13.68;;;4.68;;
53261;SDS011;39658;51.090;-1.786;2023-06-22T03:55:48;15.35;;;5.30;;
53261;SDS011;39658;51.090;-1.786;2023-06-22T03:58:15;14.23;;;6.28;;
53261;SDS011;39658;51.090;-1.786;2023-06-22T04:00:44;17.13;;;5.65;;
53261;SDS011;39658;51.090;-1.786;2023-06-22T04:03:12;11.85;;;4.15;;
53261;SDS011;39658;51.090;-1.786;2023-06-22T04:05:39;11.45;;;4.30;;
53261;SDS011;39658;51.090;-1.786;2023-06-22T04:08:06;11.00;;;4.00;;
53261;SDS011;39658;51.090;-1.786;2023-06-22T04:10:33;17.02;;;4.93;;
53261;SDS011;39658;51.090;-1.786;2023-06-22T04:13:00;14.35;;;4.80;;
53261;SDS011;39658;51.090;-1.786;2023-06-22T04:15:27;11.63;;;4.53;;
53261;SDS011;39658;51.090;-1.786;2023-06-22T04:17:54;12.55;;;5.68;;
53261;SDS011;39658;51.090;-1.786;2023-06-22T04:20:22;16.70;;;5.43;;
53261;SDS011;39658;51.090;-1.786;2023-06-22T04:22:50;14.07;;;5.88;;
53261;SDS011;39658;51.090;-1.786;2023-06-22T04:25:17;19.95;;;5.38;;
53261;SDS011;39658;51.090;-1.786;2023-06-22T04:27:45;14.65;;;4.78;;
53261;SDS011;39658;51.090;-1.786;2023-06-22T04:30:12;15.38;;;5.80;;
53261;SDS011;39658;51.090;-1.786;2023-06-22T04:32:41;23.58;;;7.80;;
53261;SDS011;39658;51.090;-1.786;2023-06-22T04:35:08;15.57;;;4.75;;
53261;SDS011;39658;51.090;-1.786;2023-06-22T04:37:37;11.93;;;4.90;;
53261;SDS011;39658;51.090;-1.786;2023-06-22T04:40:06;15.00;;;6.18;;
53261;SDS011;39658;51.090;-1.786;2023-06-22T04:42:34;17.73;;;6.47;;
53261;SDS011;39658;51.090;-1.786;2023-06-22T04:45:01;13.80;;;5.57;;
53261;SDS011;39658;51.090;-1.786;2023-06-22T04:47:28;14.57;;;4.47;;
53261;SDS011;39658;51.090;-1.786;2023-06-22T04:49:55;18.73;;;5.53;;
53261;SDS011;39658;51.090;-1.786;2023-06-22T04:52:21;18.02;;;5.65;;
53261;SDS011;39658;51.090;-1.786;2023-06-22T04:54:51;18.90;;;5.72;;
53261;SDS011;39658;51.090;-1.786;2023-06-22T04:57:20;15.65;;;5.57;;
53261;SDS011;39658;51.090;-1.786;2023-06-22T04:59:57;23.05;;;6.65;;
53261;SDS011;39658;51.090;-1.786;2023-06-22T05:02:32;12.90;;;5.03;;
53261;SDS011;39658;51.090;-1.786;2023-06-22T05:04:58;14.98;;;5.30;;
53261;SDS011;39658;51.090;-1.786;2023-06-22T05:07:25;18.00;;;4.70;;
53261;SDS011;39658;51.090;-1.786;2023-06-22T05:09:53;15.73;;;4.75;;
53261;SDS011;39658;51.090;-1.786;2023-06-22T05:12:20;19.83;;;6.18;;
53261;SDS011;39658;51.090;-1.786;2023-06-22T05:14:47;19.42;;;5.78;;
53261;SDS011;39658;51.090;-1.786;2023-06-22T05:17:14;18.00;;;5.85;;
53261;SDS011;39658;51.090;-1.786;2023-06-22T05:19:44;14.23;;;4.65;;
53261;SDS011;39658;51.090;-1.786;2023-06-22T05:22:13;15.23;;;4.97;;
53261;SDS011;39658;51.090;-1.786;2023-06-22T05:24:40;18.55;;;6.13;;
53261;SDS011;39658;51.090;-1.786;2023-06-22T05:27:09;21.15;;;7.05;;
53261;SDS011;39658;51.090;-1.786;2023-06-22T05:29:36;19.75;;;5.28;;
53261;SDS011;39658;51.090;-1.786;2023-06-22T05:32:03;25.65;;;5.55;;
53261;SDS011;39658;51.090;-1.786;2023-06-22T05:34:30;24.02;;;6.30;;
53261;SDS011;39658;51.090;-1.786;2023-06-22T05:36:57;17.85;;;6.90;;
53261;SDS011;39658;51.090;-1.786;2023-06-22T05:39:25;15.90;;;5.45;;
53261;SDS011;39658;51.090;-1.786;2023-06-22T05:41:51;19.17;;;5.85;;
53261;SDS011;39658;51.090;-1.786;2023-06-22T05:44:20;12.68;;;6.00;;
53261;SDS011;39658;51.090;-1.786;2023-06-22T05:46:47;13.85;;;5.55;;
53261;SDS011;39658;51.090;-1.786;2023-06-22T05:49:14;13.85;;;5.53;;
53261;SDS011;39658;51.090;-1.786;2023-06-22T05:51:41;13.10;;;4.68;;
53261;SDS011;39658;51.090;-1.786;2023-06-22T05:54:08;12.90;;;4.80;;
53261;SDS011;39658;51.090;-1.786;2023-06-22T05:56:35;9.20;;;3.50;;
53261;SDS011;39658;51.090;-1.786;2023-06-22T05:59:03;12.68;;;4.97;;
53261;SDS011;39658;51.090;-1.786;2023-06-22T06:01:32;15.13;;;3.95;;
53261;SDS011;39658;51.090;-1.786;2023-06-22T06:06:27;9.55;;;3.65;;
53261;SDS011;39658;51.090;-1.786;2023-06-22T06:08:54;16.75;;;5.47;;
53261;SDS011;39658;51.090;-1.786;2023-06-22T06:11:21;13.00;;;4.65;;
53261;SDS011;39658;51.090;-1.786;2023-06-22T06:13:48;10.93;;;4.35;;
53261;SDS011;39658;51.090;-1.786;2023-06-22T06:16:15;12.02;;;4.65;;
53261;SDS011;39658;51.090;-1.786;2023-06-22T06:18:43;14.93;;;5.53;;
53261;SDS011;39658;51.090;-1.786;2023-06-22T06:21:10;15.00;;;4.40;;
53261;SDS011;39658;51.090;-1.786;2023-06-22T06:23:37;13.13;;;5.00;;
53261;SDS011;39658;51.090;-1.786;2023-06-22T06:26:03;13.38;;;5.22;;
53261;SDS011;39658;51.090;-1.786;2023-06-22T06:28:32;10.43;;;4.18;;
53261;SDS011;39658;51.090;-1.786;2023-06-22T06:30:58;14.88;;;4.43;;
53261;SDS011;39658;51.090;-1.786;2023-06-22T06:33:26;24.58;;;5.50;;
53261;SDS011;39658;51.090;-1.786;2023-06-22T06:35:54;16.17;;;5.88;;
53261;SDS011;39658;51.090;-1.786;2023-06-22T06:38:21;13.02;;;5.60;;
53261;SDS011;39658;51.090;-1.786;2023-06-22T06:40:48;14.48;;;5.35;;
53261;SDS011;39658;51.090;-1.786;2023-06-22T06:43:15;22.38;;;5.68;;
53261;SDS011;39658;51.090;-1.786;2023-06-22T06:45:41;21.25;;;6.55;;
53261;SDS011;39658;51.090;-1.786;2023-06-22T06:48:08;20.38;;;6.47;;
53261;SDS011;39658;51.090;-1.786;2023-06-22T06:50:35;27.73;;;7.15;;
53261;SDS011;39658;51.090;-1.786;2023-06-22T06:53:03;20.27;;;6.57;;
53261;SDS011;39658;51.090;-1.786;2023-06-22T06:55:31;15.63;;;5.47;;
53261;SDS011;39658;51.090;-1.786;2023-06-22T06:57:59;22.83;;;7.53;;
53261;SDS011;39658;51.090;-1.786;2023-06-22T07:00:26;23.23;;;7.63;;
53261;SDS011;39658;51.090;-1.786;2023-06-22T07:02:53;26.35;;;8.27;;
53261;SDS011;39658;51.090;-1.786;2023-06-22T07:05:19;18.38;;;6.05;;
53261;SDS011;39658;51.090;-1.786;2023-06-22T07:07:46;22.85;;;6.18;;
53261;SDS011;39658;51.090;-1.786;2023-06-22T07:10:15;22.60;;;8.35;;
53261;SDS011;39658;51.090;-1.786;2023-06-22T07:12:42;24.60;;;8.20;;
53261;SDS011;39658;51.090;-1.786;2023-06-22T07:15:09;29.40;;;9.60;;
53261;SDS011;39658;51.090;-1.786;2023-06-22T07:17:37;23.20;;;8.60;;
53261;SDS011;39658;51.090;-1.786;2023-06-22T07:20:06;19.58;;;7.93;;
53261;SDS011;39658;51.090;-1.786;2023-06-22T07:22:37;23.23;;;7.78;;
53261;SDS011;39658;51.090;-1.786;2023-06-22T07:25:04;25.25;;;7.03;;
53261;SDS011;39658;51.090;-1.786;2023-06-22T07:27:36;25.08;;;7.70;;
53261;SDS011;39658;51.090;-1.786;2023-06-22T07:30:05;21.38;;;6.88;;
53261;SDS011;39658;51.090;-1.786;2023-06-22T07:32:33;20.80;;;7.45;;
53261;SDS011;39658;51.090;-1.786;2023-06-22T07:34:59;21.85;;;6.82;;
53261;SDS011;39658;51.090;-1.786;2023-06-22T07:37:27;25.10;;;8.43;;
53261;SDS011;39658;51.090;-1.786;2023-06-22T07:39:54;22.50;;;8.07;;
53261;SDS011;39658;51.090;-1.786;2023-06-22T07:42:23;30.25;;;9.90;;
53261;SDS011;39658;51.090;-1.786;2023-06-22T07:44:52;20.38;;;7.43;;
53261;SDS011;39658;51.090;-1.786;2023-06-22T07:47:19;22.52;;;7.82;;
53261;SDS011;39658;51.090;-1.786;2023-06-22T07:49:50;17.00;;;5.97;;
53261;SDS011;39658;51.090;-1.786;2023-06-22T07:52:17;19.52;;;6.65;;
53261;SDS011;39658;51.090;-1.786;2023-06-22T07:54:43;19.15;;;7.15;;
53261;SDS011;39658;51.090;-1.786;2023-06-22T07:57:10;20.65;;;7.18;;
53261;SDS011;39658;51.090;-1.786;2023-06-22T07:59:37;18.60;;;5.95;;
53261;SDS011;39658;51.090;-1.786;2023-06-22T08:02:06;22.67;;;7.35;;
53261;SDS011;39658;51.090;-1.786;2023-06-22T08:04:33;16.45;;;6.43;;
53261;SDS011;39658;51.090;-1.786;2023-06-22T08:07:00;19.83;;;6.88;;
53261;SDS011;39658;51.090;-1.786;2023-06-22T08:09:28;15.75;;;7.18;;
53261;SDS011;39658;51.090;-1.786;2023-06-22T08:11:55;17.85;;;8.50;;
53261;SDS011;39658;51.090;-1.786;2023-06-22T08:14:22;15.43;;;6.85;;
53261;SDS011;39658;51.090;-1.786;2023-06-22T08:16:49;22.08;;;6.65;;
53261;SDS011;39658;51.090;-1.786;2023-06-22T08:19:17;18.35;;;7.15;;
53261;SDS011;39658;51.090;-1.786;2023-06-22T08:21:44;19.02;;;8.18;;
53261;SDS011;39658;51.090;-1.786;2023-06-22T08:24:11;19.77;;;7.07;;
53261;SDS011;39658;51.090;-1.786;2023-06-22T08:26:37;21.88;;;7.72;;
53261;SDS011;39658;51.090;-1.786;2023-06-22T08:29:04;16.33;;;6.72;;
53261;SDS011;39658;51.090;-1.786;2023-06-22T08:31:31;21.75;;;8.05;;
53261;SDS011;39658;51.090;-1.786;2023-06-22T08:34:00;22.95;;;7.85;;
53261;SDS011;39658;51.090;-1.786;2023-06-22T08:36:28;25.60;;;9.15;;
53261;SDS011;39658;51.090;-1.786;2023-06-22T08:38:57;23.27;;;8.35;;
53261;SDS011;39658;51.090;-1.786;2023-06-22T08:41:27;22.92;;;8.60;;
53261;SDS011;39658;51.090;-1.786;2023-06-22T08:43:54;21.45;;;8.32;;
53261;SDS011;39658;51.090;-1.786;2023-06-22T08:46:22;20.50;;;7.82;;
53261;SDS011;39658;51.090;-1.786;2023-06-22T08:48:55;17.45;;;6.85;;
53261;SDS011;39658;51.090;-1.786;2023-06-22T08:51:22;19.17;;;8.23;;
53261;SDS011;39658;51.090;-1.786;2023-06-22T08:53:51;21.38;;;7.90;;
53261;SDS011;39658;51.090;-1.786;2023-06-22T08:56:18;21.20;;;7.32;;
53261;SDS011;39658;51.090;-1.786;2023-06-22T08:58:45;15.82;;;7.35;;
53261;SDS011;39658;51.090;-1.786;2023-06-22T09:01:11;20.55;;;7.68;;
53261;SDS011;39658;51.090;-1.786;2023-06-22T09:03:40;18.60;;;7.78;;
53261;SDS011;39658;51.090;-1.786;2023-06-22T09:06:07;17.17;;;7.90;;
53261;SDS011;39658;51.090;-1.786;2023-06-22T09:08:35;15.93;;;6.80;;
53261;SDS011;39658;51.090;-1.786;2023-06-22T09:11:03;19.40;;;7.72;;
53261;SDS011;39658;51.090;-1.786;2023-06-22T09:13:30;19.80;;;7.10;;
53261;SDS011;39658;51.090;-1.786;2023-06-22T09:15:57;16.92;;;7.20;;
53261;SDS011;39658;51.090;-1.786;2023-06-22T09:18:25;15.40;;;6.97;;
53261;SDS011;39658;51.090;-1.786;2023-06-22T09:20:51;19.02;;;7.65;;
53261;SDS011;39658;51.090;-1.786;2023-06-22T09:23:18;17.83;;;6.70;;
53261;SDS011;39658;51.090;-1.786;2023-06-22T09:25:45;17.55;;;7.70;;
53261;SDS011;39658;51.090;-1.786;2023-06-22T09:28:14;17.13;;;7.00;;
53261;SDS011;39658;51.090;-1.786;2023-06-22T09:30:42;16.83;;;6.65;;
53261;SDS011;39658;51.090;-1.786;2023-06-22T09:33:09;13.32;;;5.90;;
53261;SDS011;39658;51.090;-1.786;2023-06-22T09:35:36;16.55;;;6.97;;
53261;SDS011;39658;51.090;-1.786;2023-06-22T09:38:03;15.30;;;6.25;;
53261;SDS011;39658;51.090;-1.786;2023-06-22T09:40:30;21.30;;;7.38;;
53261;SDS011;39658;51.090;-1.786;2023-06-22T09:42:57;12.73;;;5.55;;
53261;SDS011;39658;51.090;-1.786;2023-06-22T09:45:26;13.75;;;5.90;;
53261;SDS011;39658;51.090;-1.786;2023-06-22T09:47:52;17.95;;;6.38;;
53261;SDS011;39658;51.090;-1.786;2023-06-22T09:50:19;16.17;;;5.65;;
53261;SDS011;39658;51.090;-1.786;2023-06-22T09:52:46;8.93;;;4.65;;
53261;SDS011;39658;51.090;-1.786;2023-06-22T09:55:16;17.02;;;4.13;;
53261;SDS011;39658;51.090;-1.786;2023-06-22T09:57:42;10.82;;;4.55;;
53261;SDS011;39658;51.090;-1.786;2023-06-22T10:00:10;8.80;;;4.55;;
53261;SDS011;39658;51.090;-1.786;2023-06-22T10:02:39;8.85;;;3.78;;
53261;SDS011;39658;51.090;-1.786;2023-06-22T10:05:07;11.98;;;4.30;;
53261;SDS011;39658;51.090;-1.786;2023-06-22T10:07:34;9.02;;;3.80;;
53261;SDS011;39658;51.090;-1.786;2023-06-22T10:10:05;15.20;;;4.13;;
53261;SDS011;39658;51.090;-1.786;2023-06-22T10:12:32;7.63;;;3.83;;
53261;SDS011;39658;51.090;-1.786;2023-06-22T10:14:59;8.25;;;2.88;;
53261;SDS011;39658;51.090;-1.786;2023-06-22T10:17:26;7.28;;;3.30;;
53261;SDS011;39658;51.090;-1.786;2023-06-22T10:19:54;7.90;;;3.58;;
53261;SDS011;39658;51.090;-1.786;2023-06-22T10:22:21;12.02;;;3.75;;
53261;SDS011;39658;51.090;-1.786;2023-06-22T10:24:47;8.63;;;2.75;;
53261;SDS011;39658;51.090;-1.786;2023-06-22T10:27:14;8.00;;;3.80;;
53261;SDS011;39658;51.090;-1.786;2023-06-22T10:29:41;6.80;;;3.63;;
53261;SDS011;39658;51.090;-1.786;2023-06-22T10:32:08;9.07;;;3.33;;
53261;SDS011;39658;51.090;-1.786;2023-06-22T10:34:35;9.35;;;3.72;;
53261;SDS011;39658;51.090;-1.786;2023-06-22T10:37:03;7.65;;;4.05;;
53261;SDS011;39658;51.090;-1.786;2023-06-22T10:39:30;12.05;;;4.55;;
53261;SDS011;39658;51.090;-1.786;2023-06-22T10:41:57;12.13;;;3.35;;
53261;SDS011;39658;51.090;-1.786;2023-06-22T10:44:24;6.57;;;3.15;;
53261;SDS011;39658;51.090;-1.786;2023-06-22T10:46:51;9.27;;;3.65;;
53261;SDS011;39658;51.090;-1.786;2023-06-22T10:49:17;7.65;;;4.18;;
53261;SDS011;39658;51.090;-1.786;2023-06-22T10:51:44;8.55;;;3.63;;
53261;SDS011;39658;51.090;-1.786;2023-06-22T10:54:13;8.60;;;3.80;;
53261;SDS011;39658;51.090;-1.786;2023-06-22T10:56:42;7.35;;;3.20;;
53261;SDS011;39658;51.090;-1.786;2023-06-22T10:59:09;8.73;;;3.38;;
53261;SDS011;39658;51.090;-1.786;2023-06-22T11:01:35;5.47;;;3.03;;
53261;SDS011;39658;51.090;-1.786;2023-06-22T11:04:02;8.07;;;3.53;;
53261;SDS011;39658;51.090;-1.786;2023-06-22T11:06:30;8.02;;;3.22;;
53261;SDS011;39658;51.090;-1.786;2023-06-22T11:08:56;6.65;;;3.05;;
53261;SDS011;39658;51.090;-1.786;2023-06-22T11:11:25;9.88;;;3.55;;
53261;SDS011;39658;51.090;-1.786;2023-06-22T11:13:52;6.60;;;3.28;;
53261;SDS011;39658;51.090;-1.786;2023-06-22T11:16:19;7.80;;;3.97;;
53261;SDS011;39658;51.090;-1.786;2023-06-22T11:18:46;6.43;;;3.17;;
53261;SDS011;39658;51.090;-1.786;2023-06-22T11:21:13;7.57;;;3.33;;
53261;SDS011;39658;51.090;-1.786;2023-06-22T11:23:41;8.43;;;3.53;;
53261;SDS011;39658;51.090;-1.786;2023-06-22T11:26:08;6.53;;;3.17;;
53261;SDS011;39658;51.090;-1.786;2023-06-22T11:28:36;7.47;;;3.53;;
53261;SDS011;39658;51.090;-1.786;2023-06-22T11:31:03;6.50;;;2.67;;
53261;SDS011;39658;51.090;-1.786;2023-06-22T11:33:32;7.97;;;3.30;;
53261;SDS011;39658;51.090;-1.786;2023-06-22T11:35:59;7.78;;;3.25;;
53261;SDS011;39658;51.090;-1.786;2023-06-22T11:38:26;6.25;;;3.35;;
53261;SDS011;39658;51.090;-1.786;2023-06-22T11:40:52;7.00;;;3.42;;
53261;SDS011;39658;51.090;-1.786;2023-06-22T11:43:19;7.70;;;3.13;;
53261;SDS011;39658;51.090;-1.786;2023-06-22T11:45:48;6.78;;;3.08;;
53261;SDS011;39658;51.090;-1.786;2023-06-22T11:48:15;5.95;;;2.95;;
53261;SDS011;39658;51.090;-1.786;2023-06-22T11:50:42;8.10;;;3.42;;
53261;SDS011;39658;51.090;-1.786;2023-06-22T11:53:09;8.02;;;3.05;;
53261;SDS011;39658;51.090;-1.786;2023-06-22T11:55:36;7.30;;;3.15;;
53261;SDS011;39658;51.090;-1.786;2023-06-22T11:58:03;9.07;;;3.15;;
53261;SDS011;39658;51.090;-1.786;2023-06-22T12:00:31;7.47;;;3.33;;
53261;SDS011;39658;51.090;-1.786;2023-06-22T12:02:59;8.23;;;3.10;;
53261;SDS011;39658;51.090;-1.786;2023-06-22T12:05:26;6.82;;;3.03;;
53261;SDS011;39658;51.090;-1.786;2023-06-22T12:07:53;7.15;;;3.30;;
53261;SDS011;39658;51.090;-1.786;2023-06-22T12:10:20;8.02;;;3.50;;
53261;SDS011;39658;51.090;-1.786;2023-06-22T12:12:47;8.18;;;4.13;;
53261;SDS011;39658;51.090;-1.786;2023-06-22T12:15:14;7.10;;;3.53;;
53261;SDS011;39658;51.090;-1.786;2023-06-22T12:17:41;9.88;;;3.42;;
53261;SDS011;39658;51.090;-1.786;2023-06-22T12:20:09;8.32;;;3.92;;
53261;SDS011;39658;51.090;-1.786;2023-06-22T12:22:37;6.93;;;3.50;;
53261;SDS011;39658;51.090;-1.786;2023-06-22T12:25:04;7.13;;;3.20;;
53261;SDS011;39658;51.090;-1.786;2023-06-22T12:27:31;6.38;;;3.20;;
53261;SDS011;39658;51.090;-1.786;2023-06-22T12:29:58;9.43;;;3.40;;
53261;SDS011;39658;51.090;-1.786;2023-06-22T12:32:25;7.28;;;3.28;;
53261;SDS011;39658;51.090;-1.786;2023-06-22T12:34:52;9.82;;;3.25;;
53261;SDS011;39658;51.090;-1.786;2023-06-22T12:37:20;7.28;;;3.22;;
53261;SDS011;39658;51.090;-1.786;2023-06-22T12:39:47;5.85;;;2.95;;
53261;SDS011;39658;51.090;-1.786;2023-06-22T12:42:14;7.65;;;3.35;;
53261;SDS011;39658;51.090;-1.786;2023-06-22T12:44:42;8.75;;;3.15;;
53261;SDS011;39658;51.090;-1.786;2023-06-22T12:47:09;6.38;;;3.25;;
53261;SDS011;39658;51.090;-1.786;2023-06-22T12:49:36;6.82;;;2.65;;
53261;SDS011;39658;51.090;-1.786;2023-06-22T12:52:04;8.95;;;2.40;;
53261;SDS011;39658;51.090;-1.786;2023-06-22T12:54:37;6.68;;;2.67;;
53261;SDS011;39658;51.090;-1.786;2023-06-22T12:57:04;6.13;;;3.22;;
53261;SDS011;39658;51.090;-1.786;2023-06-22T12:59:31;8.68;;;3.05;;
53261;SDS011;39658;51.090;-1.786;2023-06-22T13:01:58;8.48;;;3.10;;
53261;SDS011;39658;51.090;-1.786;2023-06-22T13:04:24;10.82;;;3.13;;
53261;SDS011;39658;51.090;-1.786;2023-06-22T13:06:51;6.35;;;2.80;;
53261;SDS011;39658;51.090;-1.786;2023-06-22T13:09:18;7.40;;;3.03;;
53261;SDS011;39658;51.090;-1.786;2023-06-22T13:11:47;6.18;;;3.05;;
53261;SDS011;39658;51.090;-1.786;2023-06-22T13:14:13;8.73;;;2.88;;
53261;SDS011;39658;51.090;-1.786;2023-06-22T13:16:41;6.72;;;2.92;;
53261;SDS011;39658;51.090;-1.786;2023-06-22T13:19:08;7.05;;;3.03;;
53261;SDS011;39658;51.090;-1.786;2023-06-22T13:21:35;7.43;;;3.00;;
53261;SDS011;39658;51.090;-1.786;2023-06-22T13:24:01;6.72;;;3.35;;
53261;SDS011;39658;51.090;-1.786;2023-06-22T13:26:28;6.38;;;2.92;;
53261;SDS011;39658;51.090;-1.786;2023-06-22T13:28:56;6.13;;;2.88;;
53261;SDS011;39658;51.090;-1.786;2023-06-22T13:31:23;9.35;;;3.45;;
53261;SDS011;39658;51.090;-1.786;2023-06-22T13:33:50;10.68;;;3.10;;
53261;SDS011;39658;51.090;-1.786;2023-06-22T13:36:17;6.22;;;3.17;;
53261;SDS011;39658;51.090;-1.786;2023-06-22T13:38:44;6.05;;;3.05;;
53261;SDS011;39658;51.090;-1.786;2023-06-22T13:41:12;7.50;;;2.20;;
53261;SDS011;39658;51.090;-1.786;2023-06-22T13:43:39;6.07;;;2.80;;
53261;SDS011;39658;51.090;-1.786;2023-06-22T13:46:07;5.78;;;2.63;;
53261;SDS011;39658;51.090;-1.786;2023-06-22T13:48:34;6.93;;;3.10;;
53261;SDS011;39658;51.090;-1.786;2023-06-22T13:51:00;8.02;;;2.97;;
53261;SDS011;39658;51.090;-1.786;2023-06-22T13:53:27;6.25;;;3.28;;
53261;SDS011;39658;51.090;-1.786;2023-06-22T13:55:54;5.75;;;3.03;;
53261;SDS011;39658;51.090;-1.786;2023-06-22T13:58:21;6.18;;;2.25;;
53261;SDS011;39658;51.090;-1.786;2023-06-22T14:00:48;6.78;;;3.05;;
53261;SDS011;39658;51.090;-1.786;2023-06-22T14:03:16;7.10;;;2.72;;
53261;SDS011;39658;51.090;-1.786;2023-06-22T14:05:43;6.30;;;2.95;;
53261;SDS011;39658;51.090;-1.786;2023-06-22T14:08:11;7.60;;;3.20;;
53261;SDS011;39658;51.090;-1.786;2023-06-22T14:10:38;7.82;;;2.78;;
53261;SDS011;39658;51.090;-1.786;2023-06-22T14:13:05;6.32;;;2.80;;
53261;SDS011;39658;51.090;-1.786;2023-06-22T14:15:32;5.53;;;2.63;;
53261;SDS011;39658;51.090;-1.786;2023-06-22T14:17:58;6.85;;;3.00;;
53261;SDS011;39658;51.090;-1.786;2023-06-22T14:20:26;6.82;;;3.00;;
53261;SDS011;39658;51.090;-1.786;2023-06-22T14:22:53;7.53;;;2.95;;
53261;SDS011;39658;51.090;-1.786;2023-06-22T14:25:20;6.82;;;2.55;;
53261;SDS011;39658;51.090;-1.786;2023-06-22T14:27:47;6.47;;;3.15;;
53261;SDS011;39658;51.090;-1.786;2023-06-22T14:30:14;7.35;;;3.35;;
53261;SDS011;39658;51.090;-1.786;2023-06-22T14:32:42;6.72;;;2.60;;